Tuesday, January 22, 2019, 4:54 PM EST
Back to Local

KIJD, Willimantic Windham Airport

Location: North Windham, CT, United States Lat: 41.75
Local Time: 4:54 PM EST (21:54 GMT) Lon: -72.183
Time Zone: US/Eastern Elev: 246 ft

Show me the last for .
Show Decoded

2019-01-22 15:52 METAR KIJD 222052Z AUTO VRB04KT 10SM CLR M04/M16 A3057 RMK AO2 SLP354 T10441161
                 53006 =
2019-01-22 14:52 METAR KIJD 221952Z AUTO 33004KT 10SM CLR M05/M16 A3056 RMK AO2 SLP352 T10501161
                 =
2019-01-22 13:52 METAR KIJD 221852Z AUTO 29008KT 270V340 10SM CLR M06/M16 A3055 RMK AO2 SLP349
                 T10561161 =
2019-01-22 12:52 METAR KIJD 221752Z AUTO 34012G16KT 10SM CLR M07/M16 A3055 RMK AO2 SLP350
                 T10671161 11067 21150 58010 =
2019-01-22 11:52 METAR KIJD 221652Z AUTO 32009KT 10SM CLR M08/M17 A3058 RMK AO2 SLP360 T10831167
                 =
2019-01-22 10:52 METAR KIJD 221552Z AUTO 33006KT 10SM CLR M11/M19 A3058 RMK AO2 SLP360 T11061189
                 =
2019-01-22 09:52 METAR KIJD 221452Z AUTO 30007G15KT 10SM CLR M12/M19 A3058 RMK AO2 SLP360
                 T11221194 51029 =
2019-01-22 08:52 METAR KIJD 221352Z AUTO 30007KT 10SM CLR M13/M21 A3056 RMK AO2 SLP352 T11331206
                 =
2019-01-22 07:52 METAR KIJD 221252Z AUTO 29008KT 10SM CLR M14/M21 A3052 RMK AO2 SLP340 T11441206
                 =
2019-01-22 06:52 METAR KIJD 221152Z AUTO 27008KT 10SM CLR M15/M21 A3049 RMK AO2 SLP330 T11501211
                 11150 21156 53049 =
2019-01-22 05:52 METAR KIJD 221052Z AUTO 28010G18KT 10SM CLR M15/M21 A3044 RMK AO2 PRESRR SLP312
                 T11501211 =
2019-01-22 04:52 METAR KIJD 220952Z AUTO 29007KT 10SM CLR M15/M21 A3039 RMK AO2 SLP297 T11501211
                 =
2019-01-22 03:52 METAR KIJD 220852Z AUTO 29006KT 10SM CLR M15/M21 A3035 RMK AO2 SLP282 T11501211
                 53031 =
2019-01-22 02:52 METAR KIJD 220752Z AUTO 31009G20KT 10SM CLR M15/M22 A3030 RMK AO2 SLP266
                 T11501217 =
2019-01-22 01:52 METAR KIJD 220652Z AUTO 31012G21KT 10SM CLR M15/M22 A3029 RMK AO2 SLP265
                 T11501222 =
2019-01-22 00:52 METAR KIJD 220552Z AUTO 30009G20KT 10SM CLR M16/M23 A3025 RMK AO2 SLP251
                 T11561228 11150 21161 51031 =
2019-01-21 23:52 METAR KIJD 220452Z AUTO 29010G28KT 260V340 10SM CLR M16/M23 A3023 RMK AO2 PK WND
                 29028/0443 SLP242 T11561228 411501189 =
2019-01-21 22:52 METAR KIJD 220352Z AUTO 30008G19KT 10SM CLR M16/M23 A3020 RMK AO2 SLP232
                 T11561233 =
2019-01-21 21:52 METAR KIJD 220252Z AUTO 10SM CLR M16/M23 A3016 RMK AO2 SLP220 T11611228 53035 =
2019-01-21 20:52 METAR KIJD 220152Z AUTO 30009KT 260V330 10SM CLR M16/M22 A3012 RMK AO2 SLP206
                 T11611222 =
2019-01-21 19:52 METAR KIJD 220052Z AUTO 33008G16KT 10SM CLR M16/M22 A3010 RMK AO2 PK WND
                 32026/0000 SLP197 T11561222 =
2019-01-21 18:52 METAR KIJD 212352Z AUTO 31014G27KT 10SM CLR M16/M22 A3006 RMK AO2 PK WND
                 30028/2315 SLP184 60000 T11561217 11156 21172 53037 =
2019-01-21 17:52 METAR KIJD 212252Z AUTO 32011G25KT 10SM CLR M16/M21 A3001 RMK AO2 PK WND
                 32026/2228 SLP167 T11561211 =

Support USWX by starting your Amazon purchase here.